createdAt,value
2017-10-02T00:00:58.636Z,99266.80
2017-10-02T00:03:26.151Z,99272.08
2017-10-02T00:05:53.666Z,99276.25
2017-10-02T00:08:21.134Z,99280.03
2017-10-02T00:10:48.610Z,99272.03
2017-10-02T00:13:16.064Z,99272.45
2017-10-02T00:15:43.595Z,99263.84
2017-10-02T00:18:11.156Z,99258.31
2017-10-02T00:20:38.713Z,99256.89
2017-10-02T00:23:06.184Z,99249.19
2017-10-02T00:25:33.744Z,99250.92
2017-10-02T00:28:01.227Z,99242.03
2017-10-02T00:30:28.752Z,99231.81
2017-10-02T00:32:56.214Z,99224.53
2017-10-02T00:35:23.764Z,99218.48
2017-10-02T00:37:51.222Z,99211.68
2017-10-02T00:40:18.775Z,99198.41
2017-10-02T00:42:46.233Z,99197.72
2017-10-02T00:45:13.688Z,99187.59
2017-10-02T00:47:41.170Z,99182.86
2017-10-02T00:50:08.642Z,99170.66
2017-10-02T00:52:36.121Z,99158.03
2017-10-02T00:55:03.576Z,99153.33
2017-10-02T00:57:31.044Z,99146.38
2017-10-02T00:59:58.544Z,99144.92
2017-10-02T01:02:25.998Z,99143.12
2017-10-02T01:04:53.478Z,99138.52
2017-10-02T01:07:20.943Z,99147.25
2017-10-02T01:09:48.489Z,99150.28
2017-10-02T01:12:15.960Z,99148.67
2017-10-02T01:14:43.431Z,99143.46
2017-10-02T01:17:10.895Z,99138.89
2017-10-02T01:19:38.420Z,99145.59
2017-10-02T01:22:05.899Z,99152.80
2017-10-02T01:24:33.428Z,99152.52
2017-10-02T01:27:00.897Z,99148.55
2017-10-02T01:29:28.373Z,99145.01
2017-10-02T01:31:55.846Z,99139.59
2017-10-02T01:34:23.331Z,99135.34
2017-10-02T01:36:50.786Z,99139.98
2017-10-02T01:39:18.246Z,99144.29
2017-10-02T01:41:45.726Z,99140.39
2017-10-02T01:44:13.180Z,99138.84
2017-10-02T01:46:40.658Z,99142.20
2017-10-02T01:49:08.125Z,99148.99
2017-10-02T01:51:35.602Z,99138.66
2017-10-02T01:54:03.056Z,99147.35
2017-10-02T01:56:30.573Z,99133.66
2017-10-02T01:58:58.128Z,99132.36
2017-10-02T02:01:25.682Z,99138.23
2017-10-02T02:03:53.146Z,99137.30
2017-10-02T02:06:20.602Z,99134.65
2017-10-02T02:08:48.078Z,99135.19
2017-10-02T02:11:15.535Z,99139.41
2017-10-02T02:13:42.997Z,99134.39
2017-10-02T02:16:10.461Z,99135.06
2017-10-02T02:18:37.924Z,99137.39
2017-10-02T02:21:05.434Z,99138.42
2017-10-02T02:23:32.999Z,99146.06
2017-10-02T02:26:00.462Z,99142.32
2017-10-02T02:28:28.019Z,99140.13
2017-10-02T02:30:55.515Z,99136.27
2017-10-02T02:33:22.967Z,99138.48
2017-10-02T02:35:50.444Z,99142.52
2017-10-02T02:38:17.915Z,99140.52
2017-10-02T02:40:45.380Z,99131.56
2017-10-02T02:43:12.862Z,99131.92
2017-10-02T02:45:40.315Z,99125.91
2017-10-02T02:48:07.799Z,99124.91
2017-10-02T02:50:35.260Z,99120.56
2017-10-02T02:53:02.720Z,99119.44
2017-10-02T02:55:30.247Z,99118.53
2017-10-02T02:57:57.702Z,99105.50
2017-10-02T03:00:25.188Z,99098.83
2017-10-02T03:02:52.658Z,99093.67
2017-10-02T03:05:20.127Z,99088.55
2017-10-02T03:07:47.600Z,99095.29
2017-10-02T03:10:15.086Z,99089.45
2017-10-02T03:12:42.561Z,99096.38
2017-10-02T03:15:10.014Z,99093.42
2017-10-02T03:17:37.518Z,99090.80
2017-10-02T03:20:04.988Z,99078.31
2017-10-02T03:22:32.500Z,99081.73
2017-10-02T03:24:59.987Z,99078.36
2017-10-02T03:27:27.504Z,99066.29
2017-10-02T03:29:54.973Z,99065.94
2017-10-02T03:32:22.435Z,99071.03
2017-10-02T03:34:49.902Z,99067.84
2017-10-02T03:37:17.374Z,99073.73
2017-10-02T03:39:44.840Z,99079.30
2017-10-02T03:42:12.334Z,99078.11
2017-10-02T03:44:39.810Z,99073.86
2017-10-02T03:47:07.267Z,99083.97
2017-10-02T03:49:34.734Z,99076.59
2017-10-02T03:52:02.212Z,99081.71
2017-10-02T03:54:29.699Z,99092.45
2017-10-02T03:56:57.183Z,99089.75
2017-10-02T03:59:24.647Z,99098.77
2017-10-02T04:01:52.143Z,99102.13
2017-10-02T04:04:19.647Z,99102.78
2017-10-02T04:06:47.189Z,99095.84
2017-10-02T04:09:14.646Z,99089.81
2017-10-02T04:11:42.123Z,99077.45
2017-10-02T04:14:09.687Z,99068.22
2017-10-02T04:16:37.137Z,99066.03
2017-10-02T04:19:04.599Z,99067.77
2017-10-02T04:21:32.054Z,99071.56
2017-10-02T04:23:59.573Z,99070.67
2017-10-02T04:26:27.027Z,99068.93
2017-10-02T04:28:54.485Z,99063.84
2017-10-02T04:31:21.954Z,99063.94
2017-10-02T04:33:49.407Z,99065.64
2017-10-02T04:36:16.868Z,99064.96
2017-10-02T04:38:44.323Z,99063.37
2017-10-02T04:41:11.790Z,99061.61
2017-10-02T04:43:39.238Z,99064.63
2017-10-02T04:46:06.738Z,99058.50
2017-10-02T04:48:34.195Z,99063.20
2017-10-02T04:51:01.658Z,99062.36
2017-10-02T04:53:29.144Z,99057.66
2017-10-02T04:55:56.607Z,99052.27
2017-10-02T04:58:24.123Z,99056.30
2017-10-02T05:00:51.579Z,99054.79
2017-10-02T05:03:19.067Z,99049.64
2017-10-02T05:05:46.532Z,99048.86
2017-10-02T05:08:14.376Z,99049.28
2017-10-02T05:10:41.844Z,99047.70
2017-10-02T05:13:09.377Z,99055.39
2017-10-02T05:15:36.858Z,99056.64
2017-10-02T05:18:04.428Z,99051.36
2017-10-02T05:20:31.949Z,99045.17
2017-10-02T05:22:59.523Z,99051.42
2017-10-02T05:25:26.995Z,99055.03
2017-10-02T05:27:54.478Z,99063.56
2017-10-02T05:30:21.948Z,99067.22
2017-10-02T05:32:49.414Z,99060.75
2017-10-02T05:35:16.913Z,99058.50
2017-10-02T05:37:44.412Z,99056.64
2017-10-02T05:40:11.877Z,99051.08
2017-10-02T05:42:39.387Z,99054.32
2017-10-02T05:45:06.861Z,99056.34
2017-10-02T05:47:34.324Z,99051.38
2017-10-02T05:50:01.799Z,99049.04
2017-10-02T05:52:29.315Z,99051.78
2017-10-02T05:54:56.879Z,99043.02
2017-10-02T05:57:27.016Z,99041.59
2017-10-02T05:59:54.498Z,99042.14
2017-10-02T06:02:21.968Z,99041.33
2017-10-02T06:04:49.418Z,99045.55
2017-10-02T06:07:16.917Z,99044.04
2017-10-02T06:09:44.393Z,99044.82
2017-10-02T06:12:11.861Z,99045.25
2017-10-02T06:14:39.336Z,99044.27
2017-10-02T06:17:06.851Z,99036.30
2017-10-02T06:19:34.343Z,99025.06
2017-10-02T06:22:01.815Z,99020.56
2017-10-02T06:24:29.318Z,99012.58
2017-10-02T06:26:56.790Z,99007.44
2017-10-02T06:29:24.299Z,99005.80
2017-10-02T06:31:51.767Z,99003.70
2017-10-02T06:34:19.267Z,99006.11
2017-10-02T06:36:46.742Z,99009.05
2017-10-02T06:39:14.210Z,99007.24
2017-10-02T06:41:41.679Z,99004.19
2017-10-02T06:44:09.145Z,99016.84
2017-10-02T06:46:36.634Z,99011.98
2017-10-02T06:49:04.105Z,99007.66
2017-10-02T06:51:31.569Z,99009.34
2017-10-02T06:53:59.049Z,99001.83
2017-10-02T06:56:26.514Z,99001.00
2017-10-02T06:58:54.013Z,99006.09
2017-10-02T07:01:21.469Z,99010.89
2017-10-02T07:03:48.963Z,99007.11
2017-10-02T07:06:16.436Z,98997.71
2017-10-02T07:08:43.906Z,98998.48
2017-10-02T07:11:11.419Z,98997.28
2017-10-02T07:13:38.890Z,99007.36
2017-10-02T07:16:06.448Z,98995.17
2017-10-02T07:18:33.937Z,99001.84
2017-10-02T07:21:01.436Z,99004.67
2017-10-02T07:23:29.008Z,99008.52
2017-10-02T07:25:56.466Z,99016.78
2017-10-02T07:28:24.035Z,99010.31
2017-10-02T07:30:51.584Z,99011.50
2017-10-02T07:33:19.066Z,99006.23
2017-10-02T07:35:46.562Z,99000.52
2017-10-02T07:38:14.015Z,99005.70
2017-10-02T07:40:41.509Z,98998.89
2017-10-02T07:43:09.100Z,98990.27
2017-10-02T07:45:36.639Z,99001.67
2017-10-02T07:48:04.193Z,99004.61
2017-10-02T07:50:31.656Z,99010.48
2017-10-02T07:52:59.133Z,99011.02
2017-10-02T07:55:26.595Z,99009.95
2017-10-02T07:57:54.979Z,99012.53
2017-10-02T08:00:22.457Z,99010.06
2017-10-02T08:02:49.950Z,99004.31
2017-10-02T08:05:17.577Z,98996.86
2017-10-02T08:07:45.062Z,98984.81
2017-10-02T08:10:12.576Z,98977.84
2017-10-02T08:12:40.098Z,98982.09
2017-10-02T08:15:07.586Z,98988.03
2017-10-02T08:17:35.115Z,98979.20
2017-10-02T08:20:02.624Z,98979.67
2017-10-02T08:22:30.094Z,98983.58
2017-10-02T08:24:57.546Z,98987.11
2017-10-02T08:27:25.037Z,99004.28
2017-10-02T08:29:52.488Z,99010.23
2017-10-02T08:32:20.070Z,99011.34
2017-10-02T08:34:47.544Z,99013.21
2017-10-02T08:37:15.056Z,99006.53
2017-10-02T08:39:42.528Z,99011.73
2017-10-02T08:42:10.021Z,99003.08
2017-10-02T08:44:37.516Z,99000.89
2017-10-02T08:47:04.971Z,98992.27
2017-10-02T08:49:32.479Z,99000.01
2017-10-02T08:51:59.949Z,98994.16
2017-10-02T08:54:27.463Z,98998.73
2017-10-02T08:56:54.942Z,98991.22
2017-10-02T08:59:22.492Z,99000.20
2017-10-02T09:01:49.957Z,98991.61
2017-10-02T09:04:17.491Z,98981.66
2017-10-02T09:06:45.283Z,98980.58
2017-10-02T09:09:12.756Z,98978.80
2017-10-02T09:11:40.240Z,98982.00
2017-10-02T09:14:07.741Z,98968.11
2017-10-02T09:16:35.215Z,98966.83
2017-10-02T09:19:02.689Z,98966.69
2017-10-02T09:21:30.156Z,98958.53
2017-10-02T09:23:57.628Z,98965.08
2017-10-02T09:26:25.186Z,98976.59
2017-10-02T09:28:52.667Z,98969.84
2017-10-02T09:31:20.167Z,98973.05
2017-10-02T09:33:47.648Z,98976.85
2017-10-02T09:36:15.124Z,98966.89
2017-10-02T09:38:42.583Z,98958.51
2017-10-02T09:41:10.031Z,98955.38
2017-10-02T09:43:37.513Z,98965.16
2017-10-02T09:46:04.965Z,98974.16
2017-10-02T09:48:32.553Z,98976.10
2017-10-02T09:51:00.044Z,98975.39
2017-10-02T09:53:27.596Z,98973.40
2017-10-02T09:55:55.064Z,98976.38
2017-10-02T09:58:22.799Z,98978.72
2017-10-02T10:00:50.259Z,98984.88
2017-10-02T10:03:17.739Z,98988.27
2017-10-02T10:05:45.222Z,98981.34
2017-10-02T10:08:12.685Z,98975.55
2017-10-02T10:10:40.162Z,98978.20
2017-10-02T10:13:07.642Z,98988.16
2017-10-02T10:15:35.422Z,98985.34
2017-10-02T10:18:02.961Z,98971.33
2017-10-02T10:20:30.435Z,98969.03
2017-10-02T10:22:57.908Z,98970.36
2017-10-02T10:25:25.382Z,98960.17
2017-10-02T10:27:52.860Z,98957.93
2017-10-02T10:30:20.592Z,98950.80
2017-10-02T10:32:48.094Z,98943.78
2017-10-02T10:35:15.568Z,98972.19
2017-10-02T10:37:43.037Z,98960.50
2017-10-02T10:40:10.517Z,98965.38
2017-10-02T10:42:37.978Z,98959.75
2017-10-02T10:45:05.458Z,98963.55
2017-10-02T10:47:32.930Z,98961.39
2017-10-02T10:50:00.532Z,98946.30
2017-10-02T10:52:28.084Z,98948.20
2017-10-02T10:54:55.566Z,98960.90
2017-10-02T10:57:23.041Z,98978.00
2017-10-02T10:59:50.562Z,98954.66
2017-10-02T11:02:18.049Z,98944.22
2017-10-02T11:04:45.580Z,98950.67
2017-10-02T11:07:13.134Z,98946.38
2017-10-02T11:09:40.614Z,98943.05
2017-10-02T11:12:08.069Z,98945.20
2017-10-02T11:14:35.550Z,98944.38
2017-10-02T11:17:03.023Z,98940.73
2017-10-02T11:19:30.487Z,98945.78
2017-10-02T11:21:57.943Z,98939.22
2017-10-02T11:24:25.419Z,98937.89
2017-10-02T11:26:52.885Z,98932.51
2017-10-02T11:29:20.379Z,98929.09
2017-10-02T11:31:47.840Z,98930.58
2017-10-02T11:34:15.392Z,98916.02
2017-10-02T11:36:42.871Z,98918.10
2017-10-02T11:39:10.325Z,98916.36
2017-10-02T11:41:37.803Z,98917.19
2017-10-02T11:44:05.273Z,98907.41
2017-10-02T11:46:32.743Z,98903.84
2017-10-02T11:49:00.211Z,98898.01
2017-10-02T11:51:27.696Z,98888.75
2017-10-02T11:53:55.162Z,98889.77
2017-10-02T11:56:22.681Z,98885.56
2017-10-02T11:58:50.169Z,98881.65
2017-10-02T12:01:17.702Z,98880.05
2017-10-02T12:03:45.189Z,98876.29
2017-10-02T12:06:12.671Z,98867.83
2017-10-02T12:08:40.143Z,98854.98
2017-10-02T12:11:07.631Z,98854.20
2017-10-02T12:13:35.090Z,98850.77
2017-10-02T12:16:02.567Z,98847.12
2017-10-02T12:18:30.043Z,98848.25
2017-10-02T12:20:58.138Z,98849.09
2017-10-02T12:23:25.605Z,98863.48
2017-10-02T12:25:53.082Z,98870.05
2017-10-02T12:28:20.600Z,98876.02
2017-10-02T12:30:48.068Z,98882.28
2017-10-02T12:33:15.541Z,98879.56
2017-10-02T12:35:43.003Z,98891.86
2017-10-02T12:38:10.503Z,98885.55
2017-10-02T12:40:37.965Z,98883.70
2017-10-02T12:43:05.454Z,98883.95
2017-10-02T12:45:32.941Z,98882.99
2017-10-02T12:48:00.406Z,98879.13
2017-10-02T12:50:27.964Z,98889.84
2017-10-02T12:52:55.460Z,98897.52
2017-10-02T12:55:22.940Z,98902.13
2017-10-02T12:57:50.405Z,98899.66
2017-10-02T13:00:17.869Z,98905.77
2017-10-02T13:02:45.347Z,98903.87
2017-10-02T13:05:12.978Z,98896.07
2017-10-02T13:07:40.457Z,98889.46
2017-10-02T13:10:07.921Z,98889.46
2017-10-02T13:12:35.495Z,98888.37
2017-10-02T13:15:02.996Z,98891.35
2017-10-02T13:17:30.450Z,98893.40
2017-10-02T13:19:57.922Z,98891.27
2017-10-02T13:22:25.427Z,98881.72
2017-10-02T13:24:52.990Z,98883.15
2017-10-02T13:27:20.451Z,98881.80
2017-10-02T13:29:48.448Z,98879.94
2017-10-02T13:32:15.941Z,98872.85
2017-10-02T13:34:43.393Z,98872.06
2017-10-02T13:37:10.906Z,98877.69
2017-10-02T13:39:38.432Z,98888.72
2017-10-02T13:42:05.902Z,98888.47
2017-10-02T13:44:33.379Z,98887.66
2017-10-02T13:47:00.843Z,98888.52
2017-10-02T13:49:28.455Z,98881.27
2017-10-02T13:51:55.912Z,98884.89
2017-10-02T13:54:23.418Z,98878.63
2017-10-02T13:56:50.889Z,98864.80
2017-10-02T13:59:18.345Z,98868.22
2017-10-02T14:01:45.819Z,98853.30
2017-10-02T14:04:13.286Z,98836.95
2017-10-02T14:06:40.764Z,98827.79
2017-10-02T14:09:08.219Z,98827.40
2017-10-02T14:11:35.722Z,98820.25
2017-10-02T14:14:03.192Z,98814.09
2017-10-02T14:16:30.677Z,98812.48
2017-10-02T14:18:58.142Z,98816.72
2017-10-02T14:21:25.600Z,98815.53
2017-10-02T14:23:53.086Z,98822.59
2017-10-02T14:26:20.543Z,98826.33
2017-10-02T14:28:48.105Z,98820.09
2017-10-02T14:31:15.581Z,98814.80
2017-10-02T14:33:43.055Z,98813.60
2017-10-02T14:36:10.536Z,98813.44
2017-10-02T14:38:38.016Z,98809.87
2017-10-02T14:41:05.502Z,98808.00
2017-10-02T14:43:32.970Z,98812.81
2017-10-02T14:46:00.494Z,98818.39
2017-10-02T14:48:27.982Z,98810.81
2017-10-02T14:50:55.532Z,98815.12
2017-10-02T14:53:23.016Z,98816.52
2017-10-02T14:55:50.489Z,98820.87
2017-10-02T14:58:18.626Z,98816.97
2017-10-02T15:00:52.921Z,98818.64
2017-10-02T15:12:10.113Z,98817.57
2017-10-02T15:14:37.652Z,98823.16
2017-10-02T15:17:05.157Z,98827.21
2017-10-02T15:19:32.987Z,98829.09
2017-10-02T15:22:00.449Z,98820.92
2017-10-02T15:24:27.925Z,98826.61
2017-10-02T15:26:55.420Z,98816.03
2017-10-02T15:29:23.073Z,98815.45
2017-10-02T15:31:50.578Z,98813.42
2017-10-02T15:34:18.062Z,98811.61
2017-10-02T15:36:45.530Z,98807.66
2017-10-02T15:39:12.988Z,98819.51
2017-10-02T15:41:40.711Z,98820.08
2017-10-02T15:44:08.208Z,98815.42
2017-10-02T15:46:35.678Z,98807.69
2017-10-02T15:49:03.164Z,98799.52
2017-10-02T15:51:30.642Z,98789.91
2017-10-02T15:53:58.130Z,98789.20
2017-10-02T15:56:25.602Z,98777.31
2017-10-02T15:58:53.069Z,98783.41
2017-10-02T16:01:20.543Z,98781.83
2017-10-02T16:03:48.091Z,98793.95
2017-10-02T16:06:15.560Z,98811.21
2017-10-02T16:08:43.050Z,98811.81
2017-10-02T16:11:10.525Z,98811.83
2017-10-02T16:13:38.366Z,98806.47
2017-10-02T16:16:05.923Z,98805.27
2017-10-02T16:18:33.387Z,98811.94
2017-10-02T16:21:00.860Z,98814.06
2017-10-02T16:23:28.399Z,98808.21
2017-10-02T16:25:56.169Z,98813.73
2017-10-02T16:28:23.638Z,98814.05
2017-10-02T16:30:51.108Z,98798.92
2017-10-02T16:33:18.572Z,98799.45
2017-10-02T16:35:46.054Z,98803.63
2017-10-02T16:38:13.525Z,98805.50
2017-10-02T16:40:41.006Z,98806.28
2017-10-02T16:43:08.578Z,98819.28
2017-10-02T16:45:36.062Z,98817.08
2017-10-02T16:48:03.891Z,98809.14
2017-10-02T16:50:31.351Z,98821.11
2017-10-02T16:52:58.830Z,98837.22
2017-10-02T16:55:26.302Z,98834.92
2017-10-02T16:57:53.764Z,98840.08
2017-10-02T17:00:21.234Z,98827.94
2017-10-02T17:02:48.691Z,98828.22
2017-10-02T17:05:16.173Z,98825.43
2017-10-02T17:07:43.650Z,98821.94
2017-10-02T17:10:11.408Z,98835.78
2017-10-02T17:12:38.863Z,98848.17
2017-10-02T17:15:06.320Z,98849.20
2017-10-02T17:17:33.803Z,98860.59
2017-10-02T17:20:01.263Z,98866.66
2017-10-02T17:22:28.898Z,98866.16
2017-10-02T17:24:56.386Z,98861.75
2017-10-02T17:27:23.887Z,98857.77
2017-10-02T17:29:51.383Z,98858.42
2017-10-02T17:32:18.860Z,98862.97
2017-10-02T17:34:46.336Z,98854.32
2017-10-02T17:37:14.564Z,98863.63
2017-10-02T17:39:42.031Z,98863.21
2017-10-02T17:42:09.488Z,98871.66
2017-10-02T17:44:36.959Z,98876.01
2017-10-02T17:47:05.303Z,98869.62
2017-10-02T17:49:32.819Z,98873.29
2017-10-02T17:52:00.315Z,98871.13
2017-10-02T17:54:27.886Z,98870.02
2017-10-02T17:56:55.351Z,98866.73
2017-10-02T17:59:22.819Z,98868.17
2017-10-02T18:01:50.278Z,98863.98
2017-10-02T18:04:17.743Z,98862.44
2017-10-02T18:06:45.223Z,98865.51
2017-10-02T18:09:12.676Z,98867.67
2017-10-02T18:11:40.148Z,98859.23
2017-10-02T18:14:07.616Z,98854.96
2017-10-02T18:16:35.085Z,98854.41
2017-10-02T18:19:02.549Z,98847.61
2017-10-02T18:21:30.333Z,98850.87
2017-10-02T18:23:57.801Z,98859.48
2017-10-02T18:26:25.280Z,98863.55
2017-10-02T18:28:52.779Z,98866.05
2017-10-02T18:31:20.296Z,98870.05
2017-10-02T18:33:47.795Z,98874.68
2017-10-02T18:36:15.309Z,98870.16
2017-10-02T18:38:42.772Z,98867.77
2017-10-02T18:41:10.306Z,98872.65
2017-10-02T18:43:38.182Z,98876.75
2017-10-02T18:46:05.656Z,98874.09
2017-10-02T18:48:33.998Z,98879.69
2017-10-02T18:51:02.252Z,98874.13
2017-10-02T18:53:29.752Z,98870.24
2017-10-02T18:55:57.239Z,98867.85
2017-10-02T18:58:24.750Z,98869.89
2017-10-02T19:00:52.994Z,98870.08
2017-10-02T19:03:20.451Z,98870.32
2017-10-02T19:05:48.240Z,98868.41
2017-10-02T19:08:15.756Z,98860.38
2017-10-02T19:10:43.222Z,98875.83
2017-10-02T19:13:10.716Z,98869.89
2017-10-02T19:15:38.230Z,98865.22
2017-10-02T19:18:05.727Z,98862.19
2017-10-02T19:20:33.246Z,98869.33
2017-10-02T19:23:00.748Z,98868.16
2017-10-02T19:25:28.213Z,98862.42
2017-10-02T19:27:55.693Z,98869.45
2017-10-02T19:30:23.175Z,98873.44
2017-10-02T19:32:50.646Z,98867.59
2017-10-02T19:35:18.109Z,98869.98
2017-10-02T19:37:45.581Z,98860.95
2017-10-02T19:40:13.723Z,98862.51
2017-10-02T19:42:41.538Z,98862.99
2017-10-02T19:45:09.106Z,98865.63
2017-10-02T19:47:36.569Z,98854.66
2017-10-02T19:50:04.081Z,98844.81
2017-10-02T19:52:31.537Z,98845.48
2017-10-02T19:54:59.035Z,98835.18
2017-10-02T19:57:26.490Z,98839.92
2017-10-02T19:59:53.994Z,98843.34
2017-10-02T20:02:21.456Z,98849.58
2017-10-02T20:04:49.230Z,98852.35
2017-10-02T20:07:16.823Z,98848.54
2017-10-02T20:09:44.411Z,98842.31
2017-10-02T20:12:11.895Z,98847.84
2017-10-02T20:14:39.353Z,98838.70
2017-10-02T20:17:06.827Z,98849.16
2017-10-02T20:19:34.287Z,98846.66
2017-10-02T20:22:01.766Z,98843.63
2017-10-02T20:24:29.347Z,98834.83
2017-10-02T20:26:56.849Z,98835.05
2017-10-02T20:29:24.307Z,98834.64
2017-10-02T20:31:52.130Z,98824.89
2017-10-02T20:34:20.048Z,98827.50
2017-10-02T20:36:47.541Z,98827.44
2017-10-02T20:39:15.011Z,98823.79
2017-10-02T20:41:42.475Z,98812.81
2017-10-02T20:44:09.977Z,98816.55
2017-10-02T20:46:37.442Z,98820.72
2017-10-02T20:49:04.913Z,98817.58
2017-10-02T20:51:32.495Z,98808.84
2017-10-02T20:53:59.998Z,98812.78
2017-10-02T20:56:27.512Z,98827.73
2017-10-02T20:58:55.000Z,98820.53
2017-10-02T21:01:22.477Z,98823.05
2017-10-02T21:03:49.926Z,98818.94
2017-10-02T21:06:17.781Z,98818.59
2017-10-02T21:08:45.244Z,98813.77
2017-10-02T21:11:12.713Z,98811.05
2017-10-02T21:13:40.188Z,98803.55
2017-10-02T21:16:07.708Z,98804.31
2017-10-02T21:18:35.283Z,98806.36
2017-10-02T21:21:02.803Z,98798.48
2017-10-02T21:23:30.268Z,98802.16
2017-10-02T21:25:57.720Z,98804.19
2017-10-02T21:28:25.450Z,98790.25
2017-10-02T21:30:52.917Z,98787.75
2017-10-02T21:33:20.412Z,98795.72
2017-10-02T21:35:47.894Z,98794.99
2017-10-02T21:38:15.373Z,98793.33
2017-10-02T21:40:42.841Z,98782.80
2017-10-02T21:43:10.308Z,98782.16
2017-10-02T21:45:37.824Z,98771.68
2017-10-02T21:48:05.286Z,98780.27
2017-10-02T21:50:32.754Z,98782.38
2017-10-02T21:53:00.222Z,98786.55
2017-10-02T21:55:28.012Z,98782.98
2017-10-02T21:57:55.502Z,98788.22
2017-10-02T22:00:23.021Z,98791.70
2017-10-02T22:02:50.530Z,98786.86
2017-10-02T22:05:17.983Z,98786.84
2017-10-02T22:07:45.455Z,98784.28
2017-10-02T22:10:12.926Z,98783.70
2017-10-02T22:12:40.406Z,98787.62
2017-10-02T22:15:07.876Z,98786.06
2017-10-02T22:17:35.365Z,98787.88
2017-10-02T22:20:02.881Z,98784.55
2017-10-02T22:22:30.712Z,98786.55
2017-10-02T22:24:58.722Z,98777.88
2017-10-02T22:27:26.195Z,98768.19
2017-10-02T22:29:53.695Z,98754.92
2017-10-02T22:32:21.203Z,98746.62
2017-10-02T22:34:48.686Z,98751.23
2017-10-02T22:37:16.200Z,98741.80
2017-10-02T22:39:43.969Z,98746.36
2017-10-02T22:42:11.435Z,98748.77
2017-10-02T22:44:38.907Z,98755.06
2017-10-02T22:47:06.458Z,98754.62
2017-10-02T22:49:33.909Z,98743.81
2017-10-02T22:52:01.367Z,98744.72
2017-10-02T22:54:28.916Z,98747.25
2017-10-02T22:56:56.424Z,98741.53
2017-10-02T22:59:23.939Z,98745.23
2017-10-02T23:01:51.699Z,98745.83
2017-10-02T23:04:19.174Z,98753.17
2017-10-02T23:06:46.716Z,98751.09
2017-10-02T23:09:14.266Z,98745.14
2017-10-02T23:11:41.727Z,98745.22
2017-10-02T23:14:09.200Z,98756.63
2017-10-02T23:16:36.831Z,98765.03
2017-10-02T23:19:04.614Z,98776.71
2017-10-02T23:21:32.079Z,98792.70
2017-10-02T23:23:59.542Z,98796.61
2017-10-02T23:26:27.020Z,98784.89
2017-10-02T23:28:54.477Z,98790.51
2017-10-02T23:31:21.953Z,98789.37
2017-10-02T23:33:49.454Z,98796.13
2017-10-02T23:36:16.935Z,98792.40
2017-10-02T23:38:44.417Z,98781.62
2017-10-02T23:41:12.243Z,98772.27
2017-10-02T23:43:39.723Z,98774.48
2017-10-02T23:46:07.213Z,98760.53
2017-10-02T23:48:34.704Z,98760.27
2017-10-02T23:51:02.170Z,98765.80
2017-10-02T23:53:29.635Z,98763.38
2017-10-02T23:55:57.128Z,98768.74
2017-10-02T23:58:24.600Z,98771.53
